Time;durP1;ratioP1;P1;durP2;ratioP2;P2;SDS_P1;SDS_P2;PMS_P1;PMS_P2;Temp;Humidity;BMP_temperature;BMP_pressure;BME280_temperature;BME280_humidity;BME280_pressure;Samples;Min_cycle;Max_cycle;Signal;HPM_P1;HPM_P2
2022/08/14 00:02:01;;;;;;;8.75;4.70;;;;;;;19.93;63.57;100538.31;5069964;28;20106;-41
2022/08/14 00:04:33;;;;;;;10.27;4.20;;;;;;;19.91;63.16;100546.31;5068885;28;20033;-45
2022/08/14 00:07:11;;;;;;;6.30;4.03;;;;;;;19.92;63.32;100535.88;5068945;28;20425;-42
2022/08/14 00:09:41;;;;;;;10.30;4.53;;;;;;;19.89;63.27;100531.91;5066467;28;20494;-43
2022/08/14 00:12:27;;;;;;;11.40;4.80;;;;;;;19.85;63.52;100533.94;5067802;28;20076;-41
2022/08/14 00:15:18;;;;;;;14.40;5.70;;;;;;;19.86;63.42;100535.53;5067277;28;20448;-44
2022/08/14 00:17:48;;;;;;;8.98;4.72;;;;;;;19.84;63.57;100534.34;5065801;28;20090;-42
2022/08/14 00:20:22;;;;;;;9.65;4.38;;;;;;;19.80;63.53;100528.75;5067470;28;20045;-42
2022/08/14 00:23:06;;;;;;;9.82;5.20;;;;;;;19.80;63.62;100530.78;5065952;28;20033;-45
2022/08/14 00:25:44;;;;;;;6.35;3.97;;;;;;;19.77;63.72;100526.78;5060826;28;20098;-47
2022/08/14 00:28:32;;;;;;;6.20;4.32;;;;;;;19.78;63.49;100530.38;5063605;28;20044;-51
2022/08/14 00:31:02;;;;;;;8.15;3.78;;;;;;;19.76;63.64;100522.38;5067288;28;20051;-45
2022/08/14 00:33:30;;;;;;;6.65;3.97;;;;;;;19.74;63.84;100527.59;5057232;28;20516;-43
2022/08/14 00:36:17;;;;;;;9.40;4.32;;;;;;;19.70;63.89;100524.00;5069193;28;20041;-45
2022/08/14 00:39:04;;;;;;;10.02;4.22;;;;;;;19.70;63.68;100535.25;5069093;28;20052;-41
2022/08/14 00:41:34;;;;;;;9.77;4.15;;;;;;;19.70;63.68;100526.81;5069145;28;20044;-41
2022/08/14 00:44:04;;;;;;;8.50;3.97;;;;;;;19.68;63.97;100523.63;5055405;28;20044;-48
2022/08/14 00:46:31;;;;;;;10.95;3.70;;;;;;;19.70;63.69;100515.56;5068708;28;20151;-41
2022/08/14 00:48:59;;;;;;;5.85;4.13;;;;;;;19.71;63.62;100522.00;5068224;28;20032;-44
2022/08/14 00:51:31;;;;;;;5.60;4.05;;;;;;;19.68;63.90;100523.63;5051177;28;20072;-43
2022/08/14 00:54:07;;;;;;;10.27;4.53;;;;;;;19.68;63.99;100520.81;5049872;28;20048;-42
2022/08/14 00:56:49;;;;;;;6.38;3.78;;;;;;;19.63;63.83;100523.25;5068755;28;20039;-42
2022/08/14 00:59:16;;;;;;;6.45;3.60;;;;;;;19.62;63.74;100522.47;5063600;28;20048;-42
2022/08/14 01:01:44;;;;;;;4.03;3.33;;;;;;;19.60;64.04;100513.66;5060159;28;20044;-46
2022/08/14 01:04:12;;;;;;;5.78;3.88;;;;;;;19.59;64.06;100514.84;5068551;28;20040;-42
2022/08/14 01:06:59;;;;;;;5.38;4.25;;;;;;;19.57;63.83;100520.09;5068916;28;20043;-41
2022/08/14 01:09:30;;;;;;;7.65;3.83;;;;;;;19.58;63.99;100513.28;5069347;28;20189;-47
2022/08/14 01:11:57;;;;;;;8.55;4.07;;;;;;;19.58;63.66;100510.47;5068377;28;20521;-41
2022/08/14 01:14:29;;;;;;;7.40;4.00;;;;;;;19.58;63.67;100504.84;5068435;28;20486;-41
2022/08/14 01:16:56;;;;;;;7.10;4.05;;;;;;;19.59;63.66;100503.63;5068465;28;20054;-47
2022/08/14 01:22:12;;;;;;;8.73;4.43;;;;;;;19.54;63.72;100497.66;5068384;28;20044;-42
2022/08/14 01:24:44;;;;;;;10.65;4.38;;;;;;;19.50;63.75;100494.88;5068411;28;20048;-44
2022/08/14 01:27:20;;;;;;;7.40;3.85;;;;;;;19.44;63.84;100488.09;5068925;28;20456;-43
2022/08/14 01:29:52;;;;;;;22.95;7.28;;;;;;;19.45;63.80;100486.88;5068207;28;20550;-46
2022/08/14 01:32:32;;;;;;;6.63;4.13;;;;;;;19.47;63.67;100487.28;5068455;28;20072;-40
2022/08/14 01:35:06;;;;;;;12.93;4.45;;;;;;;19.46;63.68;100482.84;5054599;28;20468;-41
2022/08/14 01:37:53;;;;;;;11.43;4.25;;;;;;;19.38;63.90;100478.50;5066193;28;20140;-47
2022/08/14 01:40:24;;;;;;;7.07;3.78;;;;;;;19.32;64.07;100474.50;5070494;28;20047;-40
2022/08/14 01:43:13;;;;;;;12.07;4.85;;;;;;;19.24;64.17;100467.34;5068234;28;20052;-47
2022/08/14 01:45:41;;;;;;;8.93;4.40;;;;;;;19.21;64.22;100462.56;5067040;28;20103;-41
2022/08/14 01:48:08;;;;;;;7.57;4.32;;;;;;;19.23;64.26;100460.13;5069666;28;20050;-42
2022/08/14 01:50:40;;;;;;;;;;;;;;;19.16;64.07;100460.19;5052349;28;20452;-45
2022/08/14 01:53:08;;;;;;;6.40;4.63;;;;;;;19.11;64.21;100463.41;5067624;28;19925;-50
2022/08/14 01:55:38;;;;;;;5.95;3.70;;;;;;;19.07;64.63;100465.44;5066707;28;20040;-47
2022/08/14 01:58:11;;;;;;;5.30;4.03;;;;;;;19.06;64.76;100461.03;5063248;28;20048;-44
2022/08/14 02:00:55;;;;;;;9.45;4.80;;;;;;;19.04;64.80;100457.81;5068820;28;20135;-45
2022/08/14 02:03:24;;;;;;;7.30;4.78;;;;;;;19.11;64.92;100457.81;5071330;28;20033;-44
2022/08/14 02:06:00;;;;;;;9.88;5.18;;;;;;;19.11;64.93;100452.19;5070243;28;20051;-44
2022/08/14 02:08:47;;;;;;;11.27;5.60;;;;;;;19.07;65.05;100435.38;5064861;28;20044;-42
2022/08/14 02:11:22;;;;;;;7.50;5.13;;;;;;;19.03;65.08;100445.03;5041120;28;20383;-43
2022/08/14 02:13:53;;;;;;;8.20;5.47;;;;;;;18.99;65.60;100441.44;5070185;28;20048;-44
2022/08/14 02:16:25;;;;;;;9.00;4.82;;;;;;;18.97;65.48;100435.44;5069275;28;20131;-43
2022/08/14 02:18:56;;;;;;;11.25;5.00;;;;;;;18.96;65.73;100440.22;5071027;28;20516;-43
2022/08/14 02:21:25;;;;;;;5.22;4.75;;;;;;;18.94;65.44;100430.63;5069620;28;20041;-41
2022/08/14 02:23:54;;;;;;;9.18;5.82;;;;;;;18.95;65.81;100426.63;5068316;28;20513;-43
2022/08/14 02:26:28;;;;;;;7.63;5.07;;;;;;;18.95;65.77;100418.22;5069982;28;20047;-44
2022/08/14 02:29:00;;;;;;;7.90;5.70;;;;;;;18.94;65.99;100419.41;5068283;28;20056;-43
2022/08/14 02:31:33;;;;;;;10.82;6.10;;;;;;;18.90;66.03;100415.84;5067950;28;20100;-44
2022/08/14 02:34:33;;;;;;;11.18;6.55;;;;;;;18.89;66.06;100420.66;5068997;28;20110;-42
2022/08/14 02:37:04;;;;;;;9.05;5.50;;;;;;;18.87;66.04;100419.47;5051014;28;20041;-42
2022/08/14 02:39:39;;;;;;;7.95;5.75;;;;;;;18.86;66.24;100421.47;5069495;28;20040;-41
2022/08/14 02:42:09;;;;;;;6.25;5.65;;;;;;;18.85;66.31;100426.25;5069551;28;20098;-41
2022/08/14 02:44:43;;;;;;;8.05;5.43;;;;;;;18.84;66.49;100413.47;5068115;28;20051;-44
2022/08/14 02:47:16;;;;;;;7.32;5.93;;;;;;;18.84;66.28;100421.88;5068348;28;20096;-45
2022/08/14 02:49:46;;;;;;;8.00;6.22;;;;;;;18.78;66.48;100422.72;5070500;28;20049;-44
2022/08/14 02:52:20;;;;;;;8.07;6.32;;;;;;;18.72;66.70;100411.13;5068782;28;20044;-42
2022/08/14 02:55:08;;;;;;;8.48;5.75;;;;;;;18.70;66.87;100421.16;5071383;28;20044;-43
2022/08/14 02:57:35;;;;;;;8.27;6.05;;;;;;;18.65;67.14;100419.56;5059091;28;20578;-42
2022/08/14 03:00:08;;;;;;;11.32;5.82;;;;;;;18.62;67.28;100420.38;5071291;28;20131;-43
2022/08/14 03:02:35;;;;;;;6.85;5.45;;;;;;;18.60;67.56;100405.97;5158797;22;20084;-43
2022/08/14 03:05:22;;;;;;;8.20;6.35;;;;;;;18.58;67.38;100404.78;5069399;28;20110;-45
2022/08/14 03:07:49;;;;;;;11.50;7.40;;;;;;;18.55;67.69;100403.59;5068807;28;20068;-42
2022/08/14 03:10:18;;;;;;;9.18;7.45;;;;;;;18.53;67.71;100400.38;5070304;28;20474;-43
2022/08/14 03:12:52;;;;;;;9.93;6.53;;;;;;;18.52;67.68;100395.19;5066251;28;20131;-47
2022/08/14 03:15:19;;;;;;;9.68;6.95;;;;;;;18.51;67.74;100390.78;5069461;28;20457;-47
2022/08/14 03:17:51;;;;;;;8.07;7.05;;;;;;;18.51;67.84;100396.38;5068048;28;20375;-48
2022/08/14 03:20:28;;;;;;;10.25;7.75;;;;;;;18.54;67.90;100395.56;5069845;28;20264;-44
2022/08/14 03:22:58;;;;;;;7.18;6.28;;;;;;;18.53;68.00;100389.16;5067616;28;20110;-44
2022/08/14 03:25:32;;;;;;;13.50;7.53;;;;;;;18.54;67.94;100387.97;5071010;28;20052;-43
2022/08/14 03:28:05;;;;;;;9.60;7.60;;;;;;;18.53;68.04;100389.16;5069468;28;20528;-48
2022/08/14 03:30:34;;;;;;;9.95;6.25;;;;;;;18.53;68.23;100383.56;5068927;28;20500;-41
2022/08/14 03:33:08;;;;;;;9.85;7.03;;;;;;;18.53;68.19;100379.97;5068870;28;20036;-46
2022/08/14 03:35:36;;;;;;;8.45;6.70;;;;;;;18.52;68.14;100375.56;5065205;28;20044;-43
2022/08/14 03:38:23;;;;;;;9.70;7.07;;;;;;;18.54;68.28;100376.75;5068926;28;20048;-47
2022/08/14 03:41:15;;;;;;;10.98;6.78;;;;;;;18.52;68.32;100373.56;5067031;28;20044;-45
2022/08/14 03:43:50;;;;;;;10.40;7.45;;;;;;;18.51;68.29;100371.97;5068421;28;20036;-44
2022/08/14 03:46:29;;;;;;;12.73;7.82;;;;;;;18.47;68.42;100362.78;5060024;28;20593;-45
2022/08/14 03:49:21;;;;;;;9.75;7.75;;;;;;;18.47;68.53;100351.56;5064831;28;20044;-42
2022/08/14 03:51:54;;;;;;;8.38;6.53;;;;;;;18.48;68.44;100347.53;5065724;28;20083;-43
2022/08/14 03:54:24;;;;;;;13.80;7.00;;;;;;;18.49;68.49;100340.75;5068364;28;20559;-42
2022/08/14 03:56:53;;;;;;;8.57;7.25;;;;;;;18.50;68.40;100353.56;5068368;28;20070;-42
2022/08/14 03:59:20;;;;;;;14.05;7.30;;;;;;;18.50;68.63;100338.75;5051730;28;20102;-43
2022/08/14 04:01:48;;;;;;;11.80;7.03;;;;;;;18.50;68.63;100339.53;5046279;28;20055;-48
2022/08/14 04:04:30;;;;;;;11.73;8.02;;;;;;;18.47;68.70;100340.34;5066390;28;20493;-41
2022/08/14 04:06:58;;;;;;;11.13;7.90;;;;;;;18.45;68.70;100334.34;5066911;28;20044;-45
2022/08/14 04:09:27;;;;;;;11.10;7.53;;;;;;;18.44;68.85;100329.94;5067599;28;20558;-45
2022/08/14 04:11:54;;;;;;;10.20;6.82;;;;;;;18.45;68.97;100325.13;5067762;28;20040;-42
2022/08/14 04:14:25;;;;;;;10.40;6.68;;;;;;;18.45;68.88;100331.53;5067577;28;20371;-42
2022/08/14 04:16:52;;;;;;;8.93;6.30;;;;;;;18.44;68.64;100329.94;5068335;28;20503;-42
2022/08/14 04:19:22;;;;;;;9.93;6.80;;;;;;;18.43;68.77;100322.72;5066966;28;20087;-42
2022/08/14 04:21:50;;;;;;;8.70;7.30;;;;;;;18.43;68.72;100328.31;5067538;28;20055;-42
2022/08/14 04:24:31;;;;;;;10.60;7.05;;;;;;;18.42;68.83;100315.53;5066716;28;20405;-47
2022/08/14 04:27:08;;;;;;;8.20;6.20;;;;;;;18.41;68.71;100313.91;5067921;28;20047;-42
2022/08/14 04:29:40;;;;;;;10.75;6.82;;;;;;;18.39;68.97;100313.53;5067834;28;20040;-43
2022/08/14 04:32:09;;;;;;;11.23;7.35;;;;;;;18.38;69.04;100309.13;5067156;28;20489;-41
2022/08/14 04:34:56;;;;;;;13.70;8.15;;;;;;;18.34;69.18;100308.38;5068842;28;20055;-43
2022/08/14 04:45:47;;;;;;;9.75;6.78;;;;;;;18.25;69.54;100293.97;5065067;28;20040;-42
2022/08/14 04:48:19;;;;;;;8.93;7.10;;;;;;;18.24;69.61;100298.78;5060801;28;20040;-47
2022/08/14 04:51:11;;;;;;;9.18;7.40;;;;;;;18.26;69.54;100298.41;5067249;28;20052;-44
2022/08/14 04:53:42;;;;;;;13.23;7.03;;;;;;;18.26;69.82;100292.78;5064510;28;20040;-42
2022/08/14 04:56:15;;;;;;;11.68;6.70;;;;;;;18.25;69.88;100302.38;5065593;28;20090;-42
2022/08/14 04:59:03;;;;;;;13.13;7.07;;;;;;;18.26;69.75;100292.78;5065655;28;20044;-41
2022/08/14 05:01:37;;;;;;;8.55;6.25;;;;;;;18.26;69.85;100295.59;5065052;28;20044;-41
2022/08/14 05:04:07;;;;;;;9.15;6.93;;;;;;;18.26;69.88;100295.59;5067232;28;20131;-43
2022/08/14 05:06:41;;;;;;;9.35;7.30;;;;;;;18.23;70.03;100302.00;5058170;28;20090;-42
2022/08/14 05:09:11;;;;;;;15.20;6.80;;;;;;;18.21;69.97;100296.03;5038551;28;20064;-42
2022/08/14 05:11:39;;;;;;;10.43;6.60;;;;;;;18.20;70.22;100288.81;5066995;28;20422;-41
2022/08/14 05:14:06;;;;;;;12.90;7.10;;;;;;;18.20;70.28;100291.59;5065446;28;20055;-46
2022/08/14 05:16:55;;;;;;;10.48;6.15;;;;;;;18.20;70.19;100291.59;5067642;28;20044;-44
2022/08/14 05:19:26;;;;;;;10.43;5.95;;;;;;;18.20;70.35;100289.59;5064754;28;20048;-45
2022/08/14 05:21:58;;;;;;;11.50;5.97;;;;;;;18.19;70.50;100284.41;5066279;28;20064;-42
2022/08/14 05:24:49;;;;;;;9.68;6.35;;;;;;;18.20;70.48;100286.00;5066310;28;20119;-49
2022/08/14 05:27:19;;;;;;;11.05;6.15;;;;;;;18.18;70.40;100280.03;5067973;28;20448;-42
2022/08/14 05:29:50;;;;;;;13.45;6.50;;;;;;;18.22;70.52;100280.78;5066602;28;20045;-41
2022/08/14 05:32:17;;;;;;;8.98;6.70;;;;;;;18.24;70.62;100286.81;5066683;28;20521;-43
2022/08/14 05:34:46;;;;;;;11.15;7.03;;;;;;;18.24;70.76;100292.41;5063944;28;20032;-47
2022/08/14 05:37:13;;;;;;;7.15;6.20;;;;;;;18.22;70.87;100290.00;5067073;28;20147;-43
2022/08/14 05:39:42;;;;;;;10.38;5.95;;;;;;;18.22;71.08;100292.78;5066545;28;20044;-45
2022/08/14 05:42:09;;;;;;;9.20;7.18;;;;;;;18.24;71.25;100292.41;5065840;28;20045;-43
2022/08/14 05:44:52;;;;;;;10.07;6.60;;;;;;;18.27;71.17;100296.41;5066319;28;20080;-42
2022/08/14 05:47:21;;;;;;;6.68;5.68;;;;;;;18.32;71.16;100296.75;5067109;28;20041;-46
2022/08/14 05:49:47;;;;;;;9.52;6.07;;;;;;;18.34;71.15;100302.75;5066553;28;20094;-46
2022/08/14 05:52:14;;;;;;;9.98;5.97;;;;;;;18.37;71.25;100296.34;5064427;28;20697;-44
2022/08/14 05:54:43;;;;;;;9.05;5.13;;;;;;;18.39;71.33;100288.31;5065940;28;20042;-41
2022/08/14 05:57:10;;;;;;;9.65;5.72;;;;;;;18.42;71.36;100292.31;5066105;28;20053;-41
2022/08/14 05:59:37;;;;;;;17.48;7.25;;;;;;;18.45;71.39;100288.69;5063348;28;20124;-42
2022/08/14 06:02:09;;;;;;;10.63;6.70;;;;;;;18.48;71.42;100288.69;5066071;28;20162;-42
2022/08/14 06:04:46;;;;;;;7.07;6.00;;;;;;;18.56;71.59;100287.44;5065277;28;20040;-43
2022/08/14 06:07:15;;;;;;;8.65;5.57;;;;;;;18.66;71.42;100289.38;5066988;28;20102;-42
2022/08/14 06:09:42;;;;;;;8.85;6.47;;;;;;;18.72;71.50;100290.53;5066858;28;20084;-41
2022/08/14 06:12:16;;;;;;;10.35;6.55;;;;;;;18.80;71.64;100283.66;5065487;28;20068;-42
2022/08/14 06:15:06;;;;;;;13.73;6.65;;;;;;;18.88;71.59;100292.03;5064657;28;20038;-46
2022/08/14 06:17:48;;;;;;;12.70;5.85;;;;;;;18.97;71.70;100283.94;5068700;28;20087;-46
2022/08/14 06:20:24;;;;;;;8.90;6.22;;;;;;;19.05;71.74;100288.28;5063165;28;20099;-44
2022/08/14 06:22:51;;;;;;;10.25;6.50;;;;;;;19.11;71.61;100290.25;5066510;28;20132;-46
2022/08/14 06:25:18;;;;;;;11.15;5.75;;;;;;;19.18;71.58;100289.38;5066666;28;20040;-43
2022/08/14 06:27:47;;;;;;;7.38;6.20;;;;;;;19.23;71.72;100292.53;5071405;28;20048;-42
2022/08/14 06:30:18;;;;;;;9.60;5.55;;;;;;;19.27;71.63;100278.47;5069360;28;20094;-44
2022/08/14 06:32:46;;;;;;;10.98;6.00;;;;;;;19.31;71.46;100282.03;5070181;28;20499;-45
2022/08/14 06:35:19;;;;;;;7.50;4.97;;;;;;;19.38;71.35;100277.16;5068761;28;20043;-46
2022/08/14 06:37:59;;;;;;;11.25;5.75;;;;;;;19.45;71.27;100276.31;5070461;28;20211;-48
2022/08/14 06:40:33;;;;;;;8.05;5.43;;;;;;;19.50;71.02;100280.66;5070102;28;20143;-43
2022/08/14 06:43:06;;;;;;;17.40;6.30;;;;;;;19.56;71.00;100282.63;5068465;28;20076;-43
2022/08/14 06:45:35;;;;;;;6.93;5.22;;;;;;;19.60;71.21;100277.75;5066807;28;20052;-43
2022/08/14 06:48:13;;;;;;;9.50;6.13;;;;;;;19.67;71.23;100280.47;5070030;28;20082;-46
2022/08/14 06:50:44;;;;;;;11.60;5.20;;;;;;;19.73;71.11;100284.44;5069667;28;20044;-41
2022/08/14 06:53:13;;;;;;;6.95;5.40;;;;;;;19.81;70.66;100283.13;5066699;28;20056;-47
2022/08/14 06:55:41;;;;;;;7.30;5.10;;;;;;;19.89;70.80;100281.84;5069687;28;20072;-43
2022/08/14 06:58:26;;;;;;;10.93;5.55;;;;;;;19.93;70.54;100274.16;5069772;28;20486;-41
2022/08/14 07:06:38;;;;;;;10.00;5.38;;;;;;;20.01;70.24;100274.88;5061613;28;20131;-48
2022/08/14 07:09:12;;;;;;;6.53;5.15;;;;;;;20.04;70.34;100272.00;5070658;28;20457;-49
2022/08/14 07:11:48;;;;;;;7.32;4.72;;;;;;;20.12;70.33;100274.75;5070633;28;20501;-42
2022/08/14 07:14:15;;;;;;;9.50;4.43;;;;;;;20.19;70.01;100269.00;5070507;28;20131;-44
2022/08/14 07:16:41;;;;;;;9.77;4.97;;;;;;;20.24;70.00;100268.56;5070417;28;20048;-42
2022/08/14 07:19:08;;;;;;;7.45;4.65;;;;;;;20.29;69.69;100256.84;5070367;28;20068;-52
2022/08/14 07:21:36;;;;;;;7.63;5.10;;;;;;;20.37;70.07;100270.41;5070299;28;20139;-46
2022/08/14 07:24:03;;;;;;;8.88;5.47;;;;;;;20.43;69.81;100263.09;5066529;28;20051;-42
2022/08/14 07:26:35;;;;;;;9.10;4.68;;;;;;;20.49;69.80;100261.38;5065227;28;20447;-42
2022/08/14 07:29:04;;;;;;;8.82;4.82;;;;;;;20.56;69.52;100258.47;5060679;28;20048;-42
2022/08/14 07:31:32;;;;;;;6.38;4.55;;;;;;;20.62;69.30;100258.78;5069649;28;20123;-42
2022/08/14 07:33:59;;;;;;;5.88;4.55;;;;;;;20.68;69.15;100262.69;5070689;28;20048;-48
2022/08/14 07:36:29;;;;;;;9.57;5.05;;;;;;;20.74;69.29;100265.84;5069889;28;20432;-43
2022/08/14 07:39:00;;;;;;;7.45;4.50;;;;;;;20.78;68.92;100255.34;5069822;28;20044;-45
2022/08/14 07:41:38;;;;;;;10.07;4.35;;;;;;;20.82;68.94;100268.13;5070537;28;20044;-39
2022/08/14 07:44:10;;;;;;;6.40;5.30;;;;;;;20.90;68.84;100258.34;5070072;28;20049;-39
2022/08/14 07:46:57;;;;;;;10.82;5.38;;;;;;;21.01;68.20;100256.16;5058677;28;20124;-44
2022/08/14 07:49:24;;;;;;;5.95;4.18;;;;;;;21.05;68.07;100262.50;5069784;28;20048;-40
2022/08/14 07:51:51;;;;;;;7.55;4.43;;;;;;;21.13;67.88;100249.13;5069735;28;20063;-42
2022/08/14 07:54:18;;;;;;;7.85;4.70;;;;;;;21.18;68.04;100260.69;5069979;28;20059;-45
2022/08/14 07:56:56;;;;;;;7.05;4.45;;;;;;;21.22;67.77;100255.81;5056208;28;20068;-42
2022/08/14 07:59:26;;;;;;;10.35;4.30;;;;;;;21.29;67.57;100252.06;5069965;28;20114;-45
2022/08/14 08:02:11;;;;;;;7.43;4.35;;;;;;;21.32;67.42;100256.81;5069286;28;20059;-44
2022/08/14 08:04:49;;;;;;;9.75;4.68;;;;;;;21.38;67.19;100259.94;5069298;28;20045;-42
2022/08/14 08:07:21;;;;;;;8.07;5.13;;;;;;;21.44;66.97;100252.59;5068748;28;20482;-43
2022/08/14 08:09:53;;;;;;;7.72;5.75;;;;;;;21.49;66.94;100249.28;5074915;28;20402;-42
2022/08/14 08:12:20;;;;;;;6.13;4.00;;;;;;;21.60;67.51;100252.69;5069455;28;20040;-48
2022/08/14 08:14:58;;;;;;;9.43;5.75;;;;;;;21.77;67.89;100243.88;5070124;28;20044;-44
2022/08/14 08:17:36;;;;;;;5.18;4.13;;;;;;;21.97;68.15;100249.56;5069452;28;20045;-42
2022/08/14 08:20:09;;;;;;;6.45;4.25;;;;;;;22.17;68.08;100246.72;5069452;28;20045;-42
2022/08/14 08:22:39;;;;;;;7.18;4.50;;;;;;;22.40;67.93;100243.75;5069223;28;20071;-47
2022/08/14 08:25:09;;;;;;;;;;;;;;;22.59;68.01;100239.28;5069474;28;20088;-43
2022/08/14 08:27:40;;;;;;;9.80;4.63;;;;;;;22.90;67.15;100241.38;5069454;28;19920;-43
2022/08/14 08:30:11;;;;;;;9.85;3.80;;;;;;;23.19;65.51;100235.81;5069158;28;20106;-44
2022/08/14 08:32:40;;;;;;;9.20;3.75;;;;;;;23.71;64.17;100243.31;5062043;28;20054;-43
2022/08/14 08:35:22;;;;;;;5.28;4.30;;;;;;;24.34;62.25;100230.13;5069180;28;20032;-42
2022/08/14 08:37:51;;;;;;;10.55;4.93;;;;;;;24.86;60.30;100237.41;5068999;28;20072;-43
2022/08/14 08:40:36;;;;;;;5.18;4.32;;;;;;;25.41;58.55;100240.34;5069121;28;20099;-45
2022/08/14 08:43:21;;;;;;;8.47;4.27;;;;;;;26.07;56.92;100241.19;5069178;28;20059;-43
2022/08/14 08:45:56;;;;;;;6.00;4.60;;;;;;;26.45;55.11;100232.44;5066025;28;20286;-41
2022/08/14 08:48:30;;;;;;;4.30;3.38;;;;;;;26.75;53.76;100234.44;5069629;28;20120;-44
2022/08/14 08:51:06;;;;;;;7.30;3.95;;;;;;;27.04;52.38;100245.44;5069227;28;20048;-44
2022/08/14 08:53:34;;;;;;;7.45;3.83;;;;;;;27.31;51.30;100236.19;5068717;28;20135;-41
2022/08/14 08:56:02;;;;;;;7.20;4.55;;;;;;;27.39;50.80;100237.44;5069044;28;20424;-41
2022/08/14 08:58:31;;;;;;;6.70;3.78;;;;;;;27.37;50.14;100239.97;5050879;28;20143;-44
2022/08/14 09:01:00;;;;;;;4.13;3.72;;;;;;;26.99;50.64;100232.66;5038299;28;20047;-42
2022/08/14 09:03:29;;;;;;;8.63;3.95;;;;;;;26.93;50.92;100231.69;5047631;28;20045;-41
2022/08/14 09:06:02;;;;;;;5.00;3.55;;;;;;;27.15;50.13;100240.09;5049016;28;20391;-43
2022/08/14 09:08:32;;;;;;;7.68;3.80;;;;;;;27.32;50.02;100237.78;5049399;28;20128;-44
2022/08/14 09:11:11;;;;;;;9.30;3.95;;;;;;;27.35;49.03;100231.91;5049053;28;20068;-43
2022/08/14 09:13:51;;;;;;;8.25;3.55;;;;;;;27.42;49.40;100236.53;5048800;28;20406;-43
2022/08/14 09:16:22;;;;;;;8.43;4.43;;;;;;;27.51;48.65;100237.31;5048419;28;20048;-42
2022/08/14 09:18:50;;;;;;;5.65;3.33;;;;;;;27.20;48.73;100237.44;5040144;28;20037;-46
2022/08/14 09:21:20;;;;;;;6.97;3.28;;;;;;;26.66;49.12;100234.44;5048224;28;20124;-40
2022/08/14 09:23:52;;;;;;;;;;;;;;;26.09;50.58;100233.00;5050503;28;20139;-42
2022/08/14 09:26:43;;;;;;;7.57;3.20;;;;;;;25.78;50.92;100241.47;5048167;28;20007;-42
2022/08/14 09:29:15;;;;;;;6.35;3.72;;;;;;;25.66;51.07;100238.66;5043462;28;20175;-46
2022/08/14 09:31:45;;;;;;;4.97;3.15;;;;;;;25.49;51.74;100226.75;5048485;28;20131;-45
2022/08/14 09:34:34;;;;;;;5.03;3.40;;;;;;;25.31;51.90;100223.72;5048294;28;20047;-47
2022/08/14 09:37:31;;;;;;;4.82;3.55;;;;;;;25.13;52.06;100223.50;5048283;28;20911;-43
2022/08/14 09:40:11;;;;;;;4.90;3.22;;;;;;;25.19;51.98;100230.19;5022785;28;20053;-43
2022/08/14 09:43:01;;;;;;;6.05;3.25;;;;;;;25.59;51.72;100231.22;5048131;28;20057;-39
2022/08/14 09:45:41;;;;;;;4.28;2.97;;;;;;;25.95;51.22;100228.66;5042212;28;20095;-40
2022/08/14 09:48:21;;;;;;;5.53;3.72;;;;;;;26.49;50.31;100233.09;5047605;28;20037;-42
2022/08/14 09:50:56;;;;;;;10.70;3.55;;;;;;;26.96;49.71;100225.06;5043401;28;20041;-43
2022/08/14 09:53:42;;;;;;;5.30;3.08;;;;;;;27.50;48.63;100232.13;5047986;28;20449;-43
2022/08/14 09:56:30;;;;;;;8.85;4.03;;;;;;;27.72;47.69;100232.75;5046674;28;20045;-44
2022/08/14 09:59:13;;;;;;;4.60;3.88;;;;;;;27.76;47.31;100227.69;5047936;28;20135;-43
2022/08/14 10:01:42;;;;;;;6.93;3.92;;;;;;;27.55;47.31;100220.13;5051343;28;20495;-43
2022/08/14 10:04:24;;;;;;;6.38;3.05;;;;;;;27.06;47.85;100232.34;5051874;28;20037;-42
2022/08/14 10:07:01;;;;;;;8.80;3.95;;;;;;;26.57;48.81;100229.50;5051972;28;20044;-46
2022/08/14 10:09:29;;;;;;;6.18;3.58;;;;;;;26.56;49.01;100221.44;5051568;28;20096;-45
2022/08/14 10:12:01;;;;;;;5.93;3.95;;;;;;;26.75;48.38;100210.94;5051906;28;20132;-47
2022/08/14 10:14:33;;;;;;;5.65;3.60;;;;;;;27.03;48.24;100216.22;5052056;28;20094;-42
2022/08/14 10:17:03;;;;;;;7.22;3.70;;;;;;;27.15;47.69;100218.16;5051672;28;20071;-43
2022/08/14 10:19:33;;;;;;;5.13;3.40;;;;;;;27.23;47.50;100212.97;5052392;28;20088;-44
2022/08/14 10:22:06;;;;;;;8.15;3.33;;;;;;;27.27;47.35;100207.91;5051755;28;20080;-45
2022/08/14 10:24:53;;;;;;;5.85;4.43;;;;;;;27.49;47.27;100202.09;5038390;28;20037;-45
2022/08/14 10:27:24;;;;;;;7.28;3.50;;;;;;;27.70;46.83;100207.63;5051806;28;20092;-43
2022/08/14 10:29:55;;;;;;;8.05;3.83;;;;;;;27.94;46.07;100198.41;5049750;28;20387;-43
2022/08/14 10:32:27;;;;;;;6.75;3.58;;;;;;;28.43;45.42;100195.31;5052073;28;20514;-41
2022/08/14 10:35:10;;;;;;;10.65;3.42;;;;;;;28.95;44.15;100186.97;5049521;28;20114;-46
2022/08/14 10:37:48;;;;;;;6.13;3.03;;;;;;;28.97;44.67;100186.47;5050123;28;20045;-45
2022/08/14 10:40:26;;;;;;;5.50;3.28;;;;;;;29.09;44.01;100178.97;5050951;28;20049;-44
2022/08/14 10:43:31;;;;;;;6.20;3.13;;;;;;;29.11;44.00;100174.34;5051610;28;20045;-37
2022/08/14 10:46:02;;;;;;;4.57;2.67;;;;;;;29.09;43.66;100168.34;5051220;28;20047;-45
2022/08/14 10:49:01;;;;;;;4.43;2.83;;;;;;;29.07;43.86;100164.41;5051455;28;20398;-43
2022/08/14 10:51:31;;;;;;;;;;;;;;;28.97;44.50;100160.81;5051565;28;20048;-47
2022/08/14 10:54:09;;;;;;;8.23;4.03;;;;;;;28.98;44.11;100151.81;5051287;28;19924;-48
2022/08/14 10:57:17;;;;;;;5.53;3.33;;;;;;;28.77;44.65;100152.09;5050925;28;20625;-43
2022/08/14 10:59:46;;;;;;;5.82;3.50;;;;;;;28.65;44.39;100145.34;5038002;28;20151;-42
2022/08/14 11:02:19;;;;;;;6.63;3.35;;;;;;;28.61;44.37;100144.72;5050766;28;20053;-43
2022/08/14 11:05:12;;;;;;;6.93;3.25;;;;;;;28.38;45.14;100134.88;5051353;28;20132;-43
2022/08/14 11:07:53;;;;;;;8.63;3.60;;;;;;;28.27;44.99;100123.25;5050693;28;20148;-43
2022/08/14 11:10:25;;;;;;;9.27;3.95;;;;;;;28.18;45.02;100116.78;5049941;28;20136;-46
2022/08/14 11:12:55;;;;;;;7.75;3.40;;;;;;;28.13;45.56;100120.28;5042718;28;20086;-44
2022/08/14 11:15:26;;;;;;;5.35;3.33;;;;;;;28.12;45.20;100110.16;5050771;28;20059;-43
2022/08/14 11:17:55;;;;;;;8.57;3.97;;;;;;;28.06;45.45;100106.41;5050849;28;20103;-44
2022/08/14 11:20:28;;;;;;;11.75;3.50;;;;;;;28.03;45.70;100098.81;5050521;28;20103;-45
2022/08/14 11:22:59;;;;;;;5.60;3.65;;;;;;;27.92;45.78;100087.94;5051484;28;20048;-45
2022/08/14 11:25:30;;;;;;;6.32;2.75;;;;;;;27.86;45.51;100081.31;5050579;28;20084;-42
2022/08/14 11:28:11;;;;;;;12.05;4.25;;;;;;;27.80;45.70;100069.78;5044819;28;20087;-40
2022/08/14 11:30:47;;;;;;;5.78;2.92;;;;;;;27.77;46.06;100076.44;5050217;28;20045;-41
2022/08/14 11:33:28;;;;;;;4.47;3.03;;;;;;;27.73;46.27;100075.81;5062557;28;20049;-42
2022/08/14 11:36:00;;;;;;;5.43;2.78;;;;;;;27.66;46.08;100078.22;5050291;28;20040;-46
2022/08/14 11:38:35;;;;;;;5.47;3.25;;;;;;;27.65;46.27;100079.47;5052104;28;20536;-46
2022/08/14 11:41:04;;;;;;;4.30;3.20;;;;;;;27.63;45.99;100077.13;5060071;28;20052;-42
2022/08/14 11:43:44;;;;;;;8.73;3.47;;;;;;;27.63;45.83;100074.28;5050174;28;20051;-43
2022/08/14 11:46:23;;;;;;;4.83;2.63;;;;;;;27.60;45.76;100065.91;5050248;28;20132;-46
2022/08/14 11:49:01;;;;;;;6.20;3.95;;;;;;;27.60;46.34;100065.91;5049899;28;20494;-47
2022/08/14 11:51:33;;;;;;;6.15;3.50;;;;;;;27.61;45.86;100067.50;5050074;28;20126;-48
2022/08/14 11:54:22;;;;;;;4.40;2.80;;;;;;;27.63;45.51;100062.09;5050433;28;20140;-42
2022/08/14 11:57:01;;;;;;;6.70;3.03;;;;;;;27.65;45.65;100068.09;5050685;28;20399;-42
2022/08/14 11:59:32;;;;;;;3.88;2.65;;;;;;;27.69;45.83;100060.97;5049234;28;20059;-41
2022/08/14 12:02:15;;;;;;;5.32;2.92;;;;;;;27.67;44.75;100054.19;5049861;28;20049;-46
2022/08/14 12:05:04;;;;;;;13.50;3.67;;;;;;;27.64;45.14;100052.31;5039220;28;20073;-47
2022/08/14 12:07:47;;;;;;;6.43;3.08;;;;;;;27.72;45.25;100053.56;5033761;28;20132;-43
2022/08/14 12:10:19;;;;;;;13.30;3.60;;;;;;;27.68;45.01;100058.59;5037137;28;20060;-51
2022/08/14 12:13:20;;;;;;;5.63;3.78;;;;;;;27.56;44.95;100063.22;5050107;28;20130;-43
2022/08/14 12:15:57;;;;;;;4.30;2.95;;;;;;;27.39;45.84;100066.88;5049565;28;20515;-46